createdAt,value
2023-05-20T00:01:53.727Z,73.04
2023-05-20T00:04:20.886Z,73.17
2023-05-20T00:06:47.825Z,73.35
2023-05-20T00:09:14.683Z,73.52
2023-05-20T00:11:41.444Z,73.19
2023-05-20T00:14:08.211Z,73.82
2023-05-20T00:16:35.330Z,73.50
2023-05-20T00:19:02.242Z,73.61
2023-05-20T00:21:29.941Z,73.62
2023-05-20T00:23:56.746Z,73.47
2023-05-20T00:26:23.622Z,73.58
2023-05-20T00:28:50.378Z,73.76
2023-05-20T00:31:17.214Z,73.44
2023-05-20T00:33:44.139Z,73.35
2023-05-20T00:36:10.903Z,73.69
2023-05-20T00:38:37.691Z,73.95
2023-05-20T00:41:04.548Z,73.88
2023-05-20T00:43:31.337Z,74.08
2023-05-20T00:45:58.220Z,73.97
2023-05-20T00:48:25.120Z,74.07
2023-05-20T00:50:52.190Z,74.09
2023-05-20T00:53:19.127Z,74.28
2023-05-20T00:55:46.041Z,74.37
2023-05-20T00:58:13.260Z,74.29
2023-05-20T01:00:40.605Z,74.33
2023-05-20T01:03:07.558Z,74.57
2023-05-20T01:05:34.614Z,74.66
2023-05-20T01:08:01.695Z,74.59
2023-05-20T01:10:30.451Z,74.62
2023-05-20T01:13:01.408Z,74.89
2023-05-20T01:15:29.722Z,74.66
2023-05-20T01:18:02.048Z,74.74
2023-05-20T01:20:32.776Z,74.71
2023-05-20T01:22:59.893Z,74.68
2023-05-20T01:25:27.011Z,74.50
2023-05-20T01:27:56.085Z,75.03
2023-05-20T01:30:24.230Z,74.93
2023-05-20T01:32:55.507Z,74.94
2023-05-20T01:35:23.393Z,74.45
2023-05-20T01:37:52.779Z,74.78
2023-05-20T01:40:20.027Z,74.69
2023-05-20T01:42:53.369Z,75.39
2023-05-20T01:45:20.793Z,75.35
2023-05-20T01:47:48.044Z,75.32
2023-05-20T01:50:14.852Z,75.35
2023-05-20T01:52:41.617Z,75.33
2023-05-20T01:55:09.003Z,75.04
2023-05-20T01:57:36.131Z,75.53
2023-05-20T02:00:03.301Z,75.55
2023-05-20T02:02:30.271Z,75.53
2023-05-20T02:04:57.133Z,75.65
2023-05-20T02:07:24.008Z,75.65
2023-05-20T02:09:50.948Z,75.90
2023-05-20T02:12:17.829Z,75.83
2023-05-20T02:14:47.113Z,75.77
2023-05-20T02:17:16.796Z,76.07
2023-05-20T02:19:44.781Z,76.30
2023-05-20T02:22:11.829Z,76.07
2023-05-20T02:24:38.647Z,76.46
2023-05-20T02:27:06.509Z,76.11
2023-05-20T02:29:33.382Z,76.54
2023-05-20T02:32:00.160Z,76.50
2023-05-20T02:34:28.039Z,76.84
2023-05-20T02:36:54.999Z,76.79
2023-05-20T02:39:21.764Z,76.65
2023-05-20T02:41:48.756Z,76.77
2023-05-20T02:44:15.739Z,77.31
2023-05-20T02:46:42.633Z,77.04
2023-05-20T02:49:09.438Z,77.27
2023-05-20T02:51:37.199Z,77.59
2023-05-20T02:54:04.141Z,77.29
2023-05-20T02:56:32.798Z,77.49
2023-05-20T02:59:00.441Z,77.64
2023-05-20T03:01:27.327Z,78.08
2023-05-20T03:03:54.259Z,77.87
2023-05-20T03:06:21.131Z,78.09
2023-05-20T03:08:48.148Z,78.53
2023-05-20T03:11:14.971Z,78.28
2023-05-20T03:13:41.747Z,78.43
2023-05-20T03:16:08.611Z,78.33
2023-05-20T03:18:35.952Z,78.41
2023-05-20T03:21:02.973Z,78.49
2023-05-20T03:23:29.857Z,78.88
2023-05-20T03:25:56.737Z,78.97
2023-05-20T03:28:23.492Z,78.81
2023-05-20T03:30:50.280Z,79.13
2023-05-20T03:33:17.146Z,78.89
2023-05-20T03:35:43.927Z,79.21
2023-05-20T03:38:10.777Z,78.92
2023-05-20T03:40:37.604Z,79.54
2023-05-20T03:43:04.400Z,79.55
2023-05-20T03:45:31.210Z,79.56
2023-05-20T03:47:58.144Z,79.40
2023-05-20T03:50:24.981Z,79.67
2023-05-20T03:52:51.885Z,80.14
2023-05-20T03:55:20.769Z,79.80
2023-05-20T03:57:47.555Z,79.93
2023-05-20T04:00:14.913Z,79.61
2023-05-20T04:02:41.959Z,80.07
2023-05-20T04:05:10.394Z,80.00
2023-05-20T04:07:37.338Z,79.85
2023-05-20T04:10:05.026Z,80.19
2023-05-20T04:12:32.743Z,80.04
2023-05-20T04:15:03.223Z,79.91
2023-05-20T04:17:31.008Z,79.85
2023-05-20T04:20:00.124Z,79.76
2023-05-20T04:22:27.706Z,79.88
2023-05-20T04:24:55.149Z,79.89
2023-05-20T04:27:21.937Z,79.79
2023-05-20T04:29:48.960Z,80.00
2023-05-20T04:32:21.746Z,79.68
2023-05-20T04:34:49.011Z,79.81
2023-05-20T04:37:16.616Z,79.77
2023-05-20T04:39:44.202Z,80.30
2023-05-20T04:42:11.038Z,79.85
2023-05-20T04:44:42.442Z,79.55
2023-05-20T04:47:09.356Z,79.99
2023-05-20T04:49:36.206Z,79.51
2023-05-20T04:52:02.983Z,79.61
2023-05-20T04:54:30.260Z,79.29
2023-05-20T04:56:57.378Z,79.68
2023-05-20T04:59:24.268Z,78.97
2023-05-20T05:01:51.586Z,79.04
2023-05-20T05:04:18.593Z,79.01
2023-05-20T05:06:45.452Z,79.10
2023-05-20T05:09:14.040Z,78.74
2023-05-20T05:11:40.813Z,78.16
2023-05-20T05:14:08.190Z,78.42
2023-05-20T05:16:35.168Z,78.71
2023-05-20T05:19:02.106Z,77.79
2023-05-20T05:21:28.929Z,77.36
2023-05-20T05:23:58.069Z,77.14
2023-05-20T05:26:26.764Z,76.88
2023-05-20T05:28:55.367Z,76.46
2023-05-20T05:31:22.328Z,77.18
2023-05-20T05:33:49.275Z,77.49
2023-05-20T05:36:16.910Z,77.69
2023-05-20T05:38:45.016Z,77.64
2023-05-20T05:41:11.965Z,78.01
2023-05-20T05:43:38.779Z,77.67
2023-05-20T05:46:05.690Z,76.99
2023-05-20T05:48:32.674Z,76.80
2023-05-20T05:50:59.557Z,75.86
2023-05-20T05:53:26.367Z,74.44
2023-05-20T05:55:53.129Z,74.67
2023-05-20T05:58:20.129Z,74.79
2023-05-20T06:00:46.992Z,75.50
2023-05-20T06:03:13.838Z,74.63
2023-05-20T06:05:40.877Z,74.24
2023-05-20T06:08:07.742Z,73.19
2023-05-20T06:10:34.640Z,72.63
2023-05-20T06:13:01.545Z,72.85
2023-05-20T06:15:28.453Z,73.86
2023-05-20T06:17:55.497Z,73.01
2023-05-20T06:20:22.405Z,71.90
2023-05-20T06:22:49.202Z,72.70
2023-05-20T06:25:16.151Z,71.85
2023-05-20T06:27:43.036Z,73.11
2023-05-20T06:30:10.140Z,73.64
2023-05-20T06:32:36.942Z,74.34
2023-05-20T06:35:04.000Z,74.48
2023-05-20T06:37:30.806Z,74.51
2023-05-20T06:39:57.645Z,73.76
2023-05-20T06:42:24.507Z,74.03
2023-05-20T06:44:51.270Z,73.75
2023-05-20T06:47:18.424Z,72.33
2023-05-20T06:49:47.549Z,73.17
2023-05-20T06:52:15.154Z,72.48
2023-05-20T06:54:42.224Z,70.93
2023-05-20T06:57:09.494Z,70.08
2023-05-20T06:59:37.382Z,69.37
2023-05-20T07:02:04.827Z,69.01
2023-05-20T07:04:31.730Z,67.64
2023-05-20T07:06:58.571Z,67.13
2023-05-20T07:09:25.668Z,66.50
2023-05-20T07:11:52.607Z,66.04
2023-05-20T07:14:19.842Z,65.99
2023-05-20T07:16:46.891Z,64.76
2023-05-20T07:19:15.361Z,63.73
2023-05-20T07:21:42.225Z,65.03
2023-05-20T07:24:09.122Z,62.69
2023-05-20T07:26:36.856Z,63.50
2023-05-20T07:29:06.756Z,63.63
2023-05-20T07:31:33.884Z,62.39
2023-05-20T07:34:00.675Z,62.50
2023-05-20T07:36:28.495Z,62.08
2023-05-20T07:39:03.268Z,62.00
2023-05-20T07:41:32.261Z,61.51
2023-05-20T07:43:59.117Z,61.40
2023-05-20T07:46:26.007Z,60.76
2023-05-20T07:48:53.139Z,61.56
2023-05-20T07:51:20.141Z,61.66
2023-05-20T07:53:47.397Z,61.86
2023-05-20T07:56:14.228Z,63.58
2023-05-20T07:58:43.779Z,63.07
2023-05-20T08:01:10.647Z,62.47
2023-05-20T08:03:37.570Z,60.06
2023-05-20T08:06:04.665Z,59.11
2023-05-20T08:08:31.465Z,59.28
2023-05-20T08:10:58.437Z,58.67
2023-05-20T08:13:25.365Z,57.25
2023-05-20T08:15:56.108Z,59.88
2023-05-20T08:18:23.554Z,58.22
2023-05-20T08:20:50.351Z,56.85
2023-05-20T08:23:17.350Z,57.88
2023-05-20T08:25:47.002Z,56.29
2023-05-20T08:28:13.999Z,56.05
2023-05-20T08:30:41.748Z,56.60
2023-05-20T08:33:08.927Z,59.00
2023-05-20T08:35:36.558Z,58.22
2023-05-20T08:38:03.461Z,59.29
2023-05-20T08:40:30.276Z,59.52
2023-05-20T08:42:59.228Z,59.04
2023-05-20T08:45:28.894Z,59.11
2023-05-20T08:47:56.059Z,59.52
2023-05-20T08:50:22.939Z,59.13
2023-05-20T08:52:49.846Z,56.23
2023-05-20T08:55:27.106Z,55.22
2023-05-20T08:57:55.204Z,53.74
2023-05-20T09:00:29.143Z,51.88
2023-05-20T09:02:58.720Z,51.83
2023-05-20T09:05:27.770Z,52.97
2023-05-20T09:08:05.607Z,53.18
2023-05-20T09:10:33.651Z,51.70
2023-05-20T09:13:05.081Z,51.57
2023-05-20T09:15:33.516Z,52.73
2023-05-20T09:18:05.153Z,50.25
2023-05-20T09:20:35.282Z,50.75
2023-05-20T09:23:03.304Z,50.84
2023-05-20T09:25:30.365Z,50.67
2023-05-20T09:27:57.507Z,49.04
2023-05-20T09:30:25.117Z,48.89
2023-05-20T09:32:56.749Z,48.22
2023-05-20T09:35:24.888Z,49.68
2023-05-20T09:37:56.727Z,49.30
2023-05-20T09:40:28.561Z,46.73
2023-05-20T09:43:07.644Z,47.97
2023-05-20T09:45:35.248Z,45.87
2023-05-20T09:48:03.190Z,48.53
2023-05-20T09:50:31.890Z,47.37
2023-05-20T09:53:03.977Z,49.97
2023-05-20T09:55:32.173Z,49.05
2023-05-20T09:58:02.735Z,48.99
2023-05-20T10:00:30.026Z,50.48
2023-05-20T10:02:58.031Z,49.61
2023-05-20T10:05:27.605Z,49.88
2023-05-20T10:08:09.982Z,48.75
2023-05-20T10:11:12.959Z,50.48
2023-05-20T10:14:10.241Z,51.50
2023-05-20T10:16:54.535Z,48.73
2023-05-20T10:19:32.618Z,49.16
2023-05-20T10:22:05.371Z,49.70
2023-05-20T10:24:38.312Z,47.23
2023-05-20T10:27:09.183Z,47.73
2023-05-20T10:29:52.809Z,47.01
2023-05-20T10:32:31.545Z,45.33
2023-05-20T10:35:05.534Z,46.50
2023-05-20T10:37:46.281Z,45.42
2023-05-20T10:40:18.727Z,45.89
2023-05-20T10:42:46.357Z,46.53
2023-05-20T10:45:13.233Z,46.91
2023-05-20T10:47:56.363Z,47.07
2023-05-20T10:50:40.648Z,46.42
2023-05-20T10:53:18.530Z,45.21
2023-05-20T10:55:54.998Z,45.58
2023-05-20T10:58:23.932Z,45.42
2023-05-20T11:00:57.119Z,46.05
2023-05-20T11:03:25.617Z,45.07
2023-05-20T11:05:52.667Z,43.17
2023-05-20T11:08:27.700Z,43.41
2023-05-20T11:10:58.094Z,41.89
2023-05-20T11:13:26.025Z,44.51
2023-05-20T11:15:53.360Z,42.83
2023-05-20T11:18:20.226Z,42.96
2023-05-20T11:20:47.540Z,44.68
2023-05-20T11:23:15.731Z,45.04
2023-05-20T11:25:42.880Z,42.67
2023-05-20T11:28:14.637Z,40.70
2023-05-20T11:30:43.298Z,41.01
2023-05-20T11:33:13.809Z,41.72
2023-05-20T11:35:51.064Z,41.03
2023-05-20T11:38:18.926Z,42.73
2023-05-20T11:40:50.923Z,41.01
2023-05-20T11:43:18.665Z,40.54
2023-05-20T11:45:47.393Z,42.24
2023-05-20T11:48:15.984Z,43.04
2023-05-20T11:50:44.909Z,44.08
2023-05-20T11:53:15.707Z,43.23
2023-05-20T11:55:50.674Z,40.85
2023-05-20T11:58:19.581Z,40.09
2023-05-20T12:00:51.731Z,39.04
2023-05-20T12:03:23.937Z,37.73
2023-05-20T12:05:53.983Z,37.76
2023-05-20T12:08:20.911Z,40.36
2023-05-20T12:10:47.833Z,41.26
2023-05-20T12:13:14.754Z,42.49
2023-05-20T12:15:41.599Z,40.88
2023-05-20T12:18:08.899Z,39.84
2023-05-20T12:20:37.408Z,39.17
2023-05-20T12:23:05.100Z,39.13
2023-05-20T12:25:31.985Z,40.24
2023-05-20T12:27:59.424Z,39.33
2023-05-20T12:30:26.324Z,41.13
2023-05-20T12:32:53.388Z,40.70
2023-05-20T12:35:41.557Z,39.02
2023-05-20T12:38:08.998Z,39.48
2023-05-20T12:40:38.074Z,37.20
2023-05-20T12:43:05.793Z,38.26
2023-05-20T12:45:33.636Z,38.34
2023-05-20T12:48:00.957Z,37.30
2023-05-20T12:50:28.440Z,36.54
2023-05-20T12:52:55.506Z,37.33
2023-05-20T12:55:22.580Z,39.65
2023-05-20T12:57:50.376Z,40.75
2023-05-20T13:00:18.042Z,40.79
2023-05-20T13:02:44.999Z,39.45
2023-05-20T13:05:11.928Z,39.69
2023-05-20T13:07:39.034Z,36.84
2023-05-20T13:10:07.364Z,35.73
2023-05-20T13:12:35.066Z,36.72
2023-05-20T13:15:01.980Z,37.90
2023-05-20T13:17:28.891Z,38.36
2023-05-20T13:19:55.926Z,38.09
2023-05-20T13:22:23.303Z,36.43
2023-05-20T13:24:50.238Z,35.92
2023-05-20T13:27:16.994Z,38.21
2023-05-20T13:29:43.899Z,35.32
2023-05-20T13:32:10.922Z,36.59
2023-05-20T13:34:38.968Z,37.88
2023-05-20T13:37:06.362Z,39.24
2023-05-20T13:39:33.396Z,39.64
2023-05-20T13:42:00.397Z,39.47
2023-05-20T13:44:27.172Z,39.49
2023-05-20T13:46:54.118Z,41.38
2023-05-20T13:49:21.607Z,40.67
2023-05-20T13:51:48.450Z,40.45
2023-05-20T13:54:15.551Z,38.98
2023-05-20T13:56:42.791Z,39.49
2023-05-20T13:59:09.615Z,39.69
2023-05-20T14:01:37.877Z,38.96
2023-05-20T14:04:06.707Z,39.78
2023-05-20T14:06:33.552Z,39.28
2023-05-20T14:09:00.608Z,37.40
2023-05-20T14:11:27.490Z,38.78
2023-05-20T14:13:54.392Z,38.89
2023-05-20T14:16:21.467Z,37.02
2023-05-20T14:18:48.399Z,36.16
2023-05-20T14:21:15.225Z,34.53
2023-05-20T14:23:44.683Z,36.66
2023-05-20T14:26:11.710Z,36.15
2023-05-20T14:28:38.604Z,37.57
2023-05-20T14:31:08.233Z,38.29
2023-05-20T14:33:36.438Z,38.97
2023-05-20T14:36:03.542Z,39.46
2023-05-20T14:38:30.401Z,39.10
2023-05-20T14:40:57.141Z,39.23
2023-05-20T14:43:23.955Z,38.95
2023-05-20T14:45:50.789Z,39.79
2023-05-20T14:48:17.785Z,39.70
2023-05-20T14:50:44.644Z,39.53
2023-05-20T14:53:11.404Z,38.98
2023-05-20T14:55:38.221Z,38.59
2023-05-20T14:58:05.016Z,38.82
2023-05-20T15:00:33.069Z,38.08
2023-05-20T15:03:00.271Z,38.09
2023-05-20T15:05:27.224Z,37.86
2023-05-20T15:07:54.110Z,38.96
2023-05-20T15:10:21.311Z,40.67
2023-05-20T15:12:48.336Z,41.72
2023-05-20T15:15:15.388Z,41.07
2023-05-20T15:17:42.216Z,41.50
2023-05-20T15:20:09.966Z,41.44
2023-05-20T15:22:37.157Z,41.69
2023-05-20T15:25:04.190Z,41.55
2023-05-20T15:27:31.181Z,40.59
2023-05-20T15:29:57.952Z,41.38
2023-05-20T15:32:25.053Z,41.00
2023-05-20T15:34:51.940Z,40.47
2023-05-20T15:37:18.829Z,39.91
2023-05-20T15:39:45.613Z,39.32
2023-05-20T15:42:18.546Z,40.26
2023-05-20T15:44:46.108Z,39.05
2023-05-20T15:47:13.390Z,38.53
2023-05-20T15:49:40.229Z,38.45
2023-05-20T15:52:07.282Z,36.30
2023-05-20T15:54:34.359Z,35.19
2023-05-20T15:57:02.832Z,34.92
2023-05-20T15:59:29.694Z,35.78
2023-05-20T16:01:56.537Z,35.61
2023-05-20T16:04:23.526Z,36.68
2023-05-20T16:06:51.023Z,37.17
2023-05-20T16:09:18.094Z,36.35
2023-05-20T16:11:44.884Z,37.18
2023-05-20T16:14:11.744Z,36.92
2023-05-20T16:16:38.645Z,37.94
2023-05-20T16:19:05.799Z,38.27
2023-05-20T16:21:32.649Z,38.96
2023-05-20T16:23:59.444Z,38.94
2023-05-20T16:26:26.683Z,44.28
2023-05-20T16:28:53.516Z,45.47
2023-05-20T16:31:20.370Z,44.61
2023-05-20T16:33:47.435Z,47.30
2023-05-20T16:36:14.230Z,47.49
2023-05-20T16:38:41.074Z,48.29
2023-05-20T16:41:07.909Z,48.88
2023-05-20T16:43:34.709Z,48.73
2023-05-20T16:46:01.861Z,49.21
2023-05-20T16:48:28.744Z,49.11
2023-05-20T16:50:55.914Z,48.79
2023-05-20T16:53:22.698Z,48.70
2023-05-20T16:55:49.470Z,47.08
2023-05-20T16:58:16.464Z,47.18
2023-05-20T17:00:43.306Z,47.96
2023-05-20T17:03:10.201Z,48.87
2023-05-20T17:05:37.127Z,49.40
2023-05-20T17:08:04.045Z,48.62
2023-05-20T17:10:30.864Z,49.86
2023-05-20T17:12:57.776Z,50.65
2023-05-20T17:15:25.736Z,52.29
2023-05-20T17:17:52.659Z,53.45
2023-05-20T17:20:19.810Z,54.19
2023-05-20T17:22:46.790Z,53.62
2023-05-20T17:25:13.636Z,53.52
2023-05-20T17:27:40.435Z,54.86
2023-05-20T17:30:07.939Z,55.75
2023-05-20T17:32:34.856Z,55.40
2023-05-20T17:35:02.294Z,55.57
2023-05-20T17:37:29.095Z,56.26
2023-05-20T17:39:55.927Z,56.45
2023-05-20T17:42:22.943Z,56.07
2023-05-20T17:44:49.900Z,57.17
2023-05-20T17:47:16.800Z,56.87
2023-05-20T17:49:43.833Z,57.95
2023-05-20T17:52:10.802Z,58.39
2023-05-20T17:54:37.695Z,58.69
2023-05-20T17:57:04.667Z,58.76
2023-05-20T17:59:34.049Z,59.58
2023-05-20T18:02:01.474Z,59.92
2023-05-20T18:04:28.689Z,60.10
2023-05-20T18:06:55.952Z,60.49
2023-05-20T18:09:22.878Z,60.10
2023-05-20T18:11:49.708Z,61.23
2023-05-20T18:14:18.940Z,61.52
2023-05-20T18:16:45.828Z,62.08
2023-05-20T18:19:12.622Z,61.92
2023-05-20T18:21:39.439Z,62.14
2023-05-20T18:24:06.706Z,62.89
2023-05-20T18:26:33.805Z,63.36
2023-05-20T18:29:01.008Z,64.18
2023-05-20T18:31:27.792Z,63.98
2023-05-20T18:33:54.621Z,64.33
2023-05-20T18:36:21.570Z,64.61
2023-05-20T18:38:48.500Z,65.16
2023-05-20T18:41:15.395Z,65.44
2023-05-20T18:43:42.234Z,65.84
2023-05-20T18:46:09.060Z,66.21
2023-05-20T18:48:36.139Z,66.73
2023-05-20T18:51:03.082Z,66.71
2023-05-20T18:53:29.909Z,66.78
2023-05-20T18:56:01.618Z,67.63
2023-05-20T18:58:28.938Z,68.30
2023-05-20T19:00:56.587Z,68.31
2023-05-20T19:03:25.427Z,68.92
2023-05-20T19:05:52.459Z,69.02
2023-05-20T19:08:19.315Z,69.55
2023-05-20T19:10:46.129Z,70.05
2023-05-20T19:13:13.159Z,70.45
2023-05-20T19:15:40.040Z,70.71
2023-05-20T19:18:06.927Z,70.94
2023-05-20T19:20:34.746Z,71.33
2023-05-20T19:23:01.686Z,71.63
2023-05-20T19:25:28.531Z,71.96
2023-05-20T19:27:55.441Z,72.43
2023-05-20T19:30:22.322Z,72.26
2023-05-20T19:32:49.261Z,72.94
2023-05-20T19:35:18.337Z,72.65
2023-05-20T19:37:45.713Z,72.83
2023-05-20T19:40:13.224Z,72.84
2023-05-20T19:42:40.038Z,73.10
2023-05-20T19:45:07.517Z,73.49
2023-05-20T19:47:34.607Z,73.63
2023-05-20T19:50:01.754Z,74.27
2023-05-20T19:52:28.610Z,74.11
2023-05-20T19:54:55.385Z,74.41
2023-05-20T19:57:22.196Z,74.73
2023-05-20T19:59:50.136Z,74.87
2023-05-20T20:02:17.878Z,74.92
2023-05-20T20:04:44.891Z,75.04
2023-05-20T20:07:12.258Z,75.34
2023-05-20T20:09:39.057Z,75.39
2023-05-20T20:12:06.816Z,75.77
2023-05-20T20:14:33.631Z,75.85
2023-05-20T20:17:00.624Z,75.84
2023-05-20T20:19:28.956Z,76.32
2023-05-20T20:21:59.084Z,76.28
2023-05-20T20:24:26.718Z,76.51
2023-05-20T20:26:57.128Z,76.58
2023-05-20T20:29:24.075Z,76.49
2023-05-20T20:31:50.957Z,76.90
2023-05-20T20:34:18.156Z,77.14
2023-05-20T20:36:48.099Z,77.44
2023-05-20T20:39:19.304Z,78.11
2023-05-20T20:41:47.680Z,77.94
2023-05-20T20:44:18.901Z,78.29
2023-05-20T20:46:46.270Z,78.23
2023-05-20T20:49:13.194Z,78.47
2023-05-20T20:51:40.460Z,78.77
2023-05-20T20:54:08.293Z,79.19
2023-05-20T20:56:37.317Z,78.96
2023-05-20T20:59:05.923Z,79.54
2023-05-20T21:01:36.619Z,79.14
2023-05-20T21:04:05.083Z,79.37
2023-05-20T21:06:32.192Z,79.40
2023-05-20T21:09:02.226Z,79.77
2023-05-20T21:11:29.179Z,79.85
2023-05-20T21:13:56.293Z,79.56
2023-05-20T21:16:23.488Z,79.98
2023-05-20T21:18:50.463Z,80.43
2023-05-20T21:21:20.706Z,80.68
2023-05-20T21:23:49.348Z,80.87
2023-05-20T21:26:16.499Z,80.57
2023-05-20T21:28:43.381Z,80.41
2023-05-20T21:31:10.255Z,80.81
2023-05-20T21:33:37.268Z,80.99
2023-05-20T21:36:04.701Z,80.48
2023-05-20T21:38:31.662Z,81.31
2023-05-20T21:40:58.891Z,81.04
2023-05-20T21:43:25.745Z,81.01
2023-05-20T21:45:52.673Z,81.71
2023-05-20T21:48:19.497Z,81.81
2023-05-20T21:50:46.387Z,81.51
2023-05-20T21:53:13.280Z,81.75
2023-05-20T21:55:40.114Z,82.14
2023-05-20T21:58:07.052Z,82.22
2023-05-20T22:00:33.918Z,82.75
2023-05-20T22:03:00.914Z,82.47
2023-05-20T22:05:27.712Z,81.71
2023-05-20T22:07:54.815Z,82.53
2023-05-20T22:10:23.389Z,82.79
2023-05-20T22:12:51.069Z,82.94
2023-05-20T22:15:18.019Z,83.22
2023-05-20T22:17:44.988Z,83.55
2023-05-20T22:20:12.492Z,83.73
2023-05-20T22:22:39.607Z,84.59
2023-05-20T22:25:07.556Z,84.96
2023-05-20T22:27:35.225Z,84.69
2023-05-20T22:30:02.644Z,84.61
2023-05-20T22:32:29.426Z,85.18
2023-05-20T22:34:58.546Z,84.77
2023-05-20T22:37:29.061Z,85.11
2023-05-20T22:39:56.356Z,85.66
2023-05-20T22:42:23.190Z,85.37
2023-05-20T22:44:50.169Z,85.35
2023-05-20T22:47:17.045Z,85.93
2023-05-20T22:49:43.844Z,86.58
2023-05-20T22:52:10.830Z,85.98
2023-05-20T22:54:37.675Z,86.48
2023-05-20T22:57:05.621Z,85.93
2023-05-20T22:59:32.979Z,86.16
2023-05-20T23:01:59.978Z,86.44
2023-05-20T23:04:26.804Z,86.58
2023-05-20T23:06:53.977Z,86.63
2023-05-20T23:09:21.434Z,86.85
2023-05-20T23:11:48.192Z,86.14
2023-05-20T23:14:15.101Z,86.99
2023-05-20T23:16:42.364Z,86.71
2023-05-20T23:19:09.356Z,86.54
2023-05-20T23:21:37.633Z,86.93
2023-05-20T23:24:04.981Z,87.41
2023-05-20T23:26:34.647Z,88.27
2023-05-20T23:29:01.772Z,88.95
2023-05-20T23:31:30.204Z,88.11
2023-05-20T23:33:59.905Z,87.64
2023-05-20T23:36:29.239Z,88.11
2023-05-20T23:38:56.869Z,87.64
2023-05-20T23:41:23.874Z,88.34
2023-05-20T23:43:50.691Z,88.64
2023-05-20T23:46:18.773Z,88.47
2023-05-20T23:48:48.471Z,88.15
2023-05-20T23:51:16.529Z,89.15
2023-05-20T23:53:44.254Z,89.21
2023-05-20T23:56:11.592Z,89.35
2023-05-20T23:58:38.694Z,89.07
